CPX964 Details

Departure: Joint Base McGuire Dix Lakehurst (KWRI)
Arrival: Chicago/Rockford International Airport (KRFD) at N/A
Route: MXE4 AIR APE J178 FWA HOBAR J60 JOT V171 RFD
Notes: EMPTY | NON-REVENUE REPOSITIONING LEG


Current Weather Information
KWRI 171656Z AUTO 00000KT 10SM FEW044 30/21 A2999 RMK AO2 RAB27E36RAB47E49 SLP154 P0000 T02980214 $
KRFD 171654Z 10007KT 10SM FEW040 BKN150 BKN250 24/19 A2991 RMK AO2 SLP124 T02390194